createdAt,value
2019-06-07T00:02:05.900Z,4.30
2019-06-07T00:04:38.524Z,5.50
2019-06-07T00:07:12.575Z,4.87
2019-06-07T00:09:45.710Z,6.12
2019-06-07T00:12:21.532Z,4.72
2019-06-07T00:14:52.852Z,3.80
2019-06-07T00:19:55.901Z,3.65
2019-06-07T00:22:33.777Z,5.17
2019-06-07T00:25:12.507Z,5.92
2019-06-07T00:27:44.128Z,5.92
2019-06-07T00:30:39.579Z,6.05
2019-06-07T00:32:51.975Z,5.53
2019-06-07T00:35:25.024Z,5.28
2019-06-07T00:40:32.105Z,5.97
2019-06-07T00:43:02.222Z,6.30
2019-06-07T00:45:35.311Z,5.83
2019-06-07T00:48:07.999Z,6.70
2019-06-07T00:50:41.164Z,5.67
2019-06-07T00:53:19.730Z,5.25
2019-06-07T00:55:49.079Z,5.92
2019-06-07T00:58:27.686Z,6.00
2019-06-07T01:00:58.088Z,6.35
2019-06-07T01:03:30.351Z,5.65
2019-06-07T01:06:03.265Z,6.40
2019-06-07T01:08:35.687Z,4.95
2019-06-07T01:11:08.445Z,6.53
2019-06-07T01:13:40.684Z,5.08
2019-06-07T01:16:13.839Z,6.15
2019-06-07T01:18:51.182Z,5.60
2019-06-07T01:21:24.844Z,5.20
2019-06-07T01:24:10.941Z,5.37
2019-06-07T01:26:35.577Z,5.42
2019-06-07T01:29:08.018Z,5.10
2019-06-07T01:31:41.973Z,5.37
2019-06-07T01:34:15.888Z,5.47
2019-06-07T01:36:49.135Z,5.62
2019-06-07T01:39:23.993Z,4.83
2019-06-07T01:41:56.245Z,5.30
2019-06-07T01:44:30.900Z,6.05
2019-06-07T01:47:03.338Z,5.08
2019-06-07T01:49:35.562Z,4.65
2019-06-07T01:52:08.398Z,5.55
2019-06-07T01:54:55.926Z,4.30
2019-06-07T01:57:31.059Z,6.20
2019-06-07T01:59:50.184Z,5.40
2019-06-07T02:02:23.464Z,5.97
2019-06-07T02:04:56.996Z,6.10
2019-06-07T02:07:32.783Z,5.70
2019-06-07T02:10:04.106Z,5.03
2019-06-07T02:12:43.082Z,6.58
2019-06-07T02:15:12.007Z,5.10
2019-06-07T02:17:44.384Z,5.47
2019-06-07T02:20:17.077Z,5.80
2019-06-07T02:22:49.410Z,5.37
2019-06-07T02:25:45.969Z,5.97
2019-06-07T02:28:25.921Z,5.33
2019-06-07T02:30:47.231Z,4.92
2019-06-07T02:33:05.389Z,6.28
2019-06-07T02:35:40.499Z,5.75
2019-06-07T02:38:12.120Z,5.83
2019-06-07T02:40:44.188Z,4.55
2019-06-07T02:43:17.706Z,5.12
2019-06-07T02:45:50.359Z,6.47
2019-06-07T02:48:24.560Z,4.58
2019-06-07T02:50:58.606Z,5.70
2019-06-07T02:53:39.525Z,6.45
2019-06-07T02:56:55.058Z,5.33
2019-06-07T02:58:42.162Z,4.67
2019-06-07T03:01:15.416Z,5.40
2019-06-07T03:03:48.176Z,5.70
2019-06-07T03:06:21.751Z,6.08
2019-06-07T03:08:56.387Z,6.30
2019-06-07T03:11:32.325Z,5.70
2019-06-07T03:14:06.236Z,6.17
2019-06-07T03:16:44.480Z,6.80
2019-06-07T03:19:26.462Z,6.00
2019-06-07T03:21:59.824Z,5.65
2019-06-07T03:27:34.199Z,4.87
2019-06-07T03:29:42.096Z,6.60
2019-06-07T03:32:14.247Z,6.17
2019-06-07T03:34:46.307Z,6.73
2019-06-07T03:37:18.411Z,7.53
2019-06-07T03:39:50.646Z,6.47
2019-06-07T03:42:23.239Z,5.85
2019-06-07T03:44:55.623Z,6.40
2019-06-07T03:47:30.746Z,5.78
2019-06-07T03:50:02.257Z,6.33
2019-06-07T03:52:38.194Z,6.53
2019-06-07T03:55:08.973Z,6.70
2019-06-07T03:58:29.940Z,5.65
2019-06-07T04:00:16.510Z,6.97
2019-06-07T04:02:49.183Z,6.95
2019-06-07T04:05:21.861Z,6.42
2019-06-07T04:07:54.335Z,6.60
2019-06-07T04:10:44.664Z,7.40
2019-06-07T04:13:01.457Z,5.42
2019-06-07T04:15:37.893Z,6.55
2019-06-07T04:18:08.664Z,6.60
2019-06-07T04:20:41.612Z,6.55
2019-06-07T04:23:27.580Z,7.53
2019-06-07T04:25:48.055Z,6.30
2019-06-07T04:28:20.217Z,6.57
2019-06-07T04:30:52.743Z,6.28
2019-06-07T04:33:25.114Z,8.00
2019-06-07T04:35:57.869Z,7.60
2019-06-07T04:38:37.965Z,6.72
2019-06-07T04:41:08.864Z,6.53
2019-06-07T04:43:44.337Z,6.35
2019-06-07T04:46:19.966Z,6.60
2019-06-07T04:48:53.873Z,6.35
2019-06-07T04:51:30.137Z,6.95
2019-06-07T04:54:03.540Z,6.45
2019-06-07T04:56:40.822Z,6.20
2019-06-07T04:59:10.491Z,6.75
2019-06-07T05:01:42.885Z,6.43
2019-06-07T05:04:14.886Z,7.15
2019-06-07T05:06:48.163Z,7.03
2019-06-07T05:09:20.783Z,6.30
2019-06-07T05:11:53.345Z,7.53
2019-06-07T05:14:26.143Z,7.00
2019-06-07T05:16:59.695Z,7.53
2019-06-07T05:19:35.315Z,7.67
2019-06-07T05:22:06.805Z,7.28
2019-06-07T05:24:41.560Z,6.17
2019-06-07T05:27:18.745Z,5.87
2019-06-07T05:30:09.670Z,5.87
2019-06-07T05:32:26.801Z,6.60
2019-06-07T05:34:58.886Z,6.05
2019-06-07T05:37:33.417Z,5.87
2019-06-07T05:40:06.444Z,5.90
2019-06-07T05:42:42.823Z,5.28
2019-06-07T05:45:15.143Z,6.50
2019-06-07T05:47:51.141Z,6.10
2019-06-07T05:50:39.315Z,6.10
2019-06-07T05:52:55.925Z,6.42
2019-06-07T05:55:28.394Z,6.67
2019-06-07T05:58:01.652Z,6.25
2019-06-07T06:00:36.855Z,5.75
2019-06-07T06:03:09.966Z,6.65
2019-06-07T06:05:50.272Z,6.35
2019-06-07T06:08:17.133Z,6.20
2019-06-07T06:10:49.406Z,5.87
2019-06-07T06:13:22.622Z,5.97
2019-06-07T06:16:01.722Z,6.05
2019-06-07T06:18:31.783Z,5.70
2019-06-07T06:21:18.771Z,5.87
2019-06-07T06:23:42.390Z,5.45
2019-06-07T06:26:13.368Z,6.62
2019-06-07T06:28:46.451Z,5.63
2019-06-07T06:31:19.122Z,5.08
2019-06-07T06:33:52.308Z,4.87
2019-06-07T06:36:25.637Z,5.15
2019-06-07T06:38:58.601Z,5.12
2019-06-07T06:41:30.966Z,4.95
2019-06-07T06:44:04.041Z,4.85
2019-06-07T06:46:41.088Z,5.20
2019-06-07T06:49:11.240Z,5.62
2019-06-07T06:51:50.049Z,4.97
2019-06-07T06:54:39.590Z,5.03
2019-06-07T06:56:53.339Z,5.25
2019-06-07T06:59:38.550Z,5.03
2019-06-07T07:01:59.867Z,4.90
2019-06-07T07:04:32.276Z,4.42
2019-06-07T07:07:04.794Z,4.62
2019-06-07T07:09:37.815Z,4.47
2019-06-07T07:12:13.024Z,5.10
2019-06-07T07:14:47.036Z,4.87
2019-06-07T07:17:18.935Z,4.40
2019-06-07T07:22:24.905Z,3.45
2019-06-07T07:24:57.055Z,4.20
2019-06-07T07:27:29.374Z,4.58
2019-06-07T07:30:35.531Z,4.53
2019-06-07T07:32:35.766Z,4.40
2019-06-07T07:35:08.714Z,4.72
2019-06-07T07:37:40.662Z,4.47
2019-06-07T07:40:55.656Z,4.58
2019-06-07T07:42:49.608Z,5.20
2019-06-07T07:45:21.468Z,5.40
2019-06-07T07:48:08.173Z,4.70
2019-06-07T07:50:29.507Z,5.03
2019-06-07T07:53:02.634Z,4.93
2019-06-07T07:55:35.412Z,4.80
2019-06-07T07:58:07.930Z,4.80
2019-06-07T08:01:07.902Z,5.25
2019-06-07T08:03:15.284Z,4.67
2019-06-07T08:05:49.186Z,4.67
2019-06-07T08:08:22.254Z,4.33
2019-06-07T08:10:58.520Z,4.05
2019-06-07T08:13:28.626Z,5.00
2019-06-07T08:16:09.413Z,4.90
2019-06-07T08:18:35.312Z,4.78
2019-06-07T08:21:23.739Z,4.03
2019-06-07T08:23:42.275Z,3.93
2019-06-07T08:28:45.393Z,4.10
2019-06-07T08:31:17.225Z,4.03
2019-06-07T08:33:50.274Z,4.95
2019-06-07T08:36:40.787Z,4.15
2019-06-07T08:39:00.514Z,3.35
2019-06-07T08:41:30.426Z,4.00
2019-06-07T08:44:22.243Z,3.60
2019-06-07T08:46:36.395Z,3.35
2019-06-07T08:51:40.594Z,3.72
2019-06-07T08:54:22.429Z,4.10
2019-06-07T08:56:47.839Z,4.23
2019-06-07T08:59:20.337Z,4.00
2019-06-07T09:01:59.778Z,3.67
2019-06-07T09:04:31.063Z,3.27
2019-06-07T09:09:35.894Z,3.22
2019-06-07T09:19:45.680Z,4.58
2019-06-07T09:22:17.992Z,3.72
2019-06-07T09:24:51.994Z,3.47
2019-06-07T09:27:24.154Z,4.03
2019-06-07T09:30:04.728Z,4.37
2019-06-07T09:32:31.940Z,3.60
2019-06-07T09:35:10.714Z,4.13
2019-06-07T09:38:04.140Z,3.20
2019-06-07T09:40:24.107Z,3.17
2019-06-07T09:42:47.604Z,3.20
2019-06-07T09:47:50.493Z,3.27
2019-06-07T09:50:22.969Z,2.75
2019-06-07T09:53:02.765Z,3.47
2019-06-07T09:55:29.854Z,2.90
2019-06-07T09:58:45.392Z,3.00
2019-06-07T10:00:41.549Z,2.57
2019-06-07T10:03:20.153Z,2.70
2019-06-07T10:05:45.158Z,2.20
2019-06-07T10:10:50.059Z,2.27
2019-06-07T10:13:22.638Z,2.20
2019-06-07T10:15:54.949Z,2.25
2019-06-07T10:18:27.479Z,2.10
2019-06-07T10:20:59.546Z,1.98
2019-06-07T10:23:32.313Z,2.25
2019-06-07T10:26:05.956Z,2.00
2019-06-07T10:28:38.413Z,2.05
2019-06-07T10:31:11.417Z,1.70
2019-06-07T10:33:43.610Z,2.15
2019-06-07T10:36:16.232Z,2.17
2019-06-07T10:38:48.792Z,1.95
2019-06-07T10:41:21.590Z,1.92
2019-06-07T10:43:54.871Z,2.20
2019-06-07T10:46:27.346Z,1.85
2019-06-07T10:49:00.135Z,1.82
2019-06-07T10:51:33.586Z,1.90
2019-06-07T10:54:19.620Z,1.62
2019-06-07T10:56:40.036Z,1.52
2019-06-07T10:59:13.681Z,1.70
2019-06-07T11:01:46.396Z,1.75
2019-06-07T11:04:19.140Z,2.40
2019-06-07T11:06:51.347Z,1.52
2019-06-07T11:09:23.241Z,1.80
2019-06-07T11:11:55.879Z,2.20
2019-06-07T11:14:28.367Z,2.10
2019-06-07T11:17:00.198Z,2.00
2019-06-07T11:19:32.675Z,1.82
2019-06-07T11:22:06.049Z,2.15
2019-06-07T11:24:38.249Z,1.90
2019-06-07T11:27:11.646Z,1.77
2019-06-07T11:29:44.835Z,2.02
2019-06-07T11:32:16.629Z,2.27
2019-06-07T11:34:48.754Z,2.40
2019-06-07T11:37:20.606Z,2.02
2019-06-07T11:39:53.702Z,2.12
2019-06-07T11:42:26.140Z,1.90
2019-06-07T11:44:58.582Z,2.20
2019-06-07T11:47:31.182Z,2.25
2019-06-07T11:50:03.295Z,2.25
2019-06-07T11:52:35.832Z,2.02
2019-06-07T11:55:09.486Z,2.30
2019-06-07T11:57:42.900Z,2.30
2019-06-07T12:00:18.894Z,1.90
2019-06-07T12:02:51.241Z,2.12
2019-06-07T12:05:23.851Z,2.20
2019-06-07T12:07:57.157Z,2.15
2019-06-07T12:10:41.844Z,2.27
2019-06-07T12:13:08.448Z,2.42
2019-06-07T12:15:41.003Z,2.37
2019-06-07T12:18:13.517Z,2.47
2019-06-07T12:20:45.574Z,2.17
2019-06-07T12:23:18.122Z,2.40
2019-06-07T12:25:50.098Z,2.15
2019-06-07T12:28:24.968Z,2.37
2019-06-07T12:30:57.168Z,2.40
2019-06-07T12:36:11.876Z,2.13
2019-06-07T12:38:44.366Z,2.20
2019-06-07T12:41:18.241Z,2.12
2019-06-07T12:43:50.737Z,2.37
2019-06-07T12:46:28.399Z,2.58
2019-06-07T12:48:57.130Z,2.30
2019-06-07T12:51:29.229Z,2.33
2019-06-07T12:54:01.425Z,2.42
2019-06-07T12:56:33.232Z,2.20
2019-06-07T12:59:05.423Z,2.15
2019-06-07T13:01:37.504Z,2.40
2019-06-07T13:04:09.295Z,2.50
2019-06-07T13:06:41.781Z,2.25
2019-06-07T13:09:13.936Z,2.17
2019-06-07T13:11:46.169Z,2.40
2019-06-07T13:14:19.941Z,2.30
2019-06-07T13:16:51.855Z,2.15
2019-06-07T13:19:24.614Z,2.45
2019-06-07T13:21:57.007Z,2.15
2019-06-07T13:24:30.292Z,2.93
2019-06-07T13:27:02.852Z,2.40
2019-06-07T13:29:35.186Z,2.47
2019-06-07T13:32:07.447Z,2.37
2019-06-07T13:34:39.803Z,2.10
2019-06-07T13:37:11.902Z,2.12
2019-06-07T13:39:44.275Z,2.12
2019-06-07T13:42:16.466Z,2.33
2019-06-07T13:44:49.205Z,2.58
2019-06-07T13:47:23.128Z,2.02
2019-06-07T13:49:55.563Z,2.42
2019-06-07T13:52:28.430Z,2.40
2019-06-07T13:55:02.334Z,2.50
2019-06-07T13:57:34.018Z,2.55
2019-06-07T14:00:10.735Z,2.67
2019-06-07T14:02:42.114Z,2.60
2019-06-07T14:05:14.897Z,2.37
2019-06-07T14:07:47.728Z,2.85
2019-06-07T14:10:21.495Z,2.55
2019-06-07T14:12:54.083Z,2.60
2019-06-07T14:15:26.540Z,2.50
2019-06-07T14:17:59.032Z,2.45
2019-06-07T14:20:34.827Z,2.80
2019-06-07T14:23:08.502Z,2.37
2019-06-07T14:25:41.178Z,2.45
2019-06-07T14:28:13.660Z,2.42
2019-06-07T14:30:45.645Z,2.35
2019-06-07T14:33:17.755Z,2.30
2019-06-07T14:35:50.473Z,2.53
2019-06-07T14:38:23.052Z,3.00
2019-06-07T14:40:56.352Z,2.83
2019-06-07T14:43:31.755Z,2.20
2019-06-07T14:46:03.809Z,2.80
2019-06-07T14:48:36.564Z,2.70
2019-06-07T14:51:08.717Z,2.72
2019-06-07T14:53:40.828Z,2.30
2019-06-07T14:56:13.688Z,2.47
2019-06-07T14:58:45.837Z,2.90
2019-06-07T15:01:17.951Z,2.58
2019-06-07T15:03:50.353Z,2.55
2019-06-07T15:06:22.653Z,2.35
2019-06-07T15:08:54.707Z,2.40
2019-06-07T15:11:26.893Z,2.50
2019-06-07T15:13:59.666Z,2.80
2019-06-07T15:16:32.100Z,2.58
2019-06-07T15:19:04.666Z,2.50
2019-06-07T15:21:36.436Z,2.25
2019-06-07T15:24:08.514Z,2.58
2019-06-07T15:26:41.129Z,2.55
2019-06-07T15:29:13.303Z,2.50
2019-06-07T15:31:45.791Z,2.10
2019-06-07T15:34:18.574Z,2.40
2019-06-07T15:36:51.753Z,2.42
2019-06-07T15:39:24.161Z,2.33
2019-06-07T15:41:56.899Z,2.40
2019-06-07T15:44:29.683Z,2.20
2019-06-07T15:47:02.619Z,2.40
2019-06-07T15:49:36.079Z,2.35
2019-06-07T15:52:08.284Z,2.40
2019-06-07T15:54:40.951Z,2.08
2019-06-07T15:57:13.837Z,2.53
2019-06-07T15:59:45.814Z,2.27
2019-06-07T16:02:18.018Z,2.47
2019-06-07T16:04:50.214Z,2.50
2019-06-07T16:07:23.918Z,2.70
2019-06-07T16:09:56.445Z,2.33
2019-06-07T16:12:28.562Z,2.60
2019-06-07T16:15:00.545Z,2.50
2019-06-07T16:17:33.031Z,2.33
2019-06-07T16:20:06.559Z,2.58
2019-06-07T16:22:39.738Z,2.27
2019-06-07T16:25:22.444Z,2.30
2019-06-07T16:27:54.922Z,2.05
2019-06-07T16:30:34.470Z,2.30
2019-06-07T16:33:07.269Z,2.33
2019-06-07T16:35:39.111Z,2.30
2019-06-07T16:38:11.168Z,2.52
2019-06-07T16:40:44.634Z,2.70
2019-06-07T16:43:18.578Z,2.35
2019-06-07T16:45:51.479Z,2.60
2019-06-07T16:48:23.889Z,2.42
2019-06-07T16:50:56.046Z,2.55
2019-06-07T16:53:28.548Z,2.22
2019-06-07T16:56:00.825Z,2.40
2019-06-07T16:58:32.793Z,2.40
2019-06-07T17:01:05.587Z,2.47
2019-06-07T17:03:37.640Z,2.50
2019-06-07T17:06:10.094Z,3.10
2019-06-07T17:08:44.136Z,2.47
2019-06-07T17:11:16.637Z,2.52
2019-06-07T17:13:49.386Z,2.85
2019-06-07T17:16:21.559Z,2.58
2019-06-07T17:18:54.114Z,2.35
2019-06-07T17:21:26.505Z,2.20
2019-06-07T17:23:58.345Z,2.30
2019-06-07T17:26:30.802Z,2.70
2019-06-07T17:29:02.817Z,2.42
2019-06-07T17:31:35.586Z,2.80
2019-06-07T17:34:07.691Z,2.90
2019-06-07T17:36:40.270Z,2.98
2019-06-07T17:39:12.706Z,2.70
2019-06-07T17:41:58.614Z,2.60
2019-06-07T17:44:22.600Z,2.40
2019-06-07T17:46:54.743Z,3.17
2019-06-07T17:49:27.875Z,2.70
2019-06-07T17:52:00.137Z,3.72
2019-06-07T17:54:32.848Z,2.72
2019-06-07T17:57:04.896Z,2.50
2019-06-07T17:59:40.673Z,3.10
2019-06-07T18:02:15.533Z,2.27
2019-06-07T18:04:47.591Z,2.83
2019-06-07T18:07:21.672Z,2.43
2019-06-07T18:09:54.836Z,2.77
2019-06-07T18:12:27.291Z,2.60
2019-06-07T18:14:59.525Z,3.33
2019-06-07T18:17:34.843Z,2.80
2019-06-07T18:20:07.480Z,3.27
2019-06-07T18:22:39.951Z,3.02
2019-06-07T18:25:12.733Z,2.87
2019-06-07T18:27:46.476Z,2.75
2019-06-07T18:30:19.247Z,2.90
2019-06-07T18:32:51.269Z,3.00
2019-06-07T18:37:55.169Z,2.67
2019-06-07T18:40:28.870Z,3.20
2019-06-07T18:43:00.971Z,3.02
2019-06-07T18:45:33.040Z,3.00
2019-06-07T18:50:39.233Z,3.50
2019-06-07T18:53:11.686Z,3.42
2019-06-07T18:55:43.555Z,3.42
2019-06-07T18:58:16.236Z,3.30
2019-06-07T19:00:49.836Z,5.22
2019-06-07T19:03:22.375Z,5.20
2019-06-07T19:05:56.257Z,4.27
2019-06-07T19:08:28.692Z,4.23
2019-06-07T19:13:31.806Z,3.60
2019-06-07T19:16:04.249Z,3.72
2019-06-07T19:18:37.045Z,3.20
2019-06-07T19:21:10.761Z,3.47
2019-06-07T19:23:43.227Z,3.90
2019-06-07T19:28:46.955Z,3.20
2019-06-07T19:31:18.764Z,3.80
2019-06-07T19:33:53.041Z,3.50
2019-06-07T19:36:25.596Z,3.62
2019-06-07T19:38:57.976Z,3.98
2019-06-07T19:41:30.553Z,3.50
2019-06-07T19:44:03.414Z,3.50
2019-06-07T19:46:35.878Z,4.30
2019-06-07T19:49:08.257Z,3.53
2019-06-07T19:51:40.350Z,4.00
2019-06-07T19:54:12.836Z,3.27
2019-06-07T19:59:16.285Z,2.65
2019-06-07T20:01:48.591Z,2.10
2019-06-07T20:06:54.030Z,1.12
2019-06-07T20:09:26.435Z,1.42
2019-06-07T20:14:30.627Z,2.77
2019-06-07T20:17:05.477Z,1.50
2019-06-07T20:19:38.156Z,1.60
2019-06-07T20:22:11.129Z,0.88
2019-06-07T20:24:43.297Z,0.80
2019-06-07T20:27:19.610Z,0.68
2019-06-07T20:29:52.246Z,0.90
2019-06-07T20:32:26.353Z,0.42
2019-06-07T20:34:59.677Z,0.53
2019-06-07T20:37:32.671Z,2.35
2019-06-07T20:40:19.486Z,0.67
2019-06-07T20:42:41.071Z,0.80
2019-06-07T20:45:14.876Z,0.63
2019-06-07T20:47:47.690Z,0.80
2019-06-07T20:52:53.676Z,0.30
2019-06-07T20:55:27.002Z,0.30
2019-06-07T20:58:00.825Z,0.63
2019-06-07T21:00:35.855Z,0.80
2019-06-07T21:03:09.496Z,0.93
2019-06-07T21:05:42.574Z,0.40
2019-06-07T21:10:46.611Z,0.25
2019-06-07T21:13:19.170Z,0.65
2019-06-07T21:15:52.385Z,0.50
2019-06-07T21:18:25.311Z,0.50
2019-06-07T21:23:29.684Z,0.60
2019-06-07T21:26:02.903Z,0.20
2019-06-07T21:28:35.188Z,0.80
2019-06-07T21:31:08.214Z,0.60
2019-06-07T21:33:40.958Z,0.40
2019-06-07T21:36:13.056Z,0.62
2019-06-07T21:38:45.381Z,0.70
2019-06-07T21:41:18.126Z,0.80
2019-06-07T21:43:51.137Z,0.40
2019-06-07T21:46:23.831Z,0.47
2019-06-07T21:48:56.527Z,0.53
2019-06-07T21:51:29.264Z,0.40
2019-06-07T21:54:02.852Z,0.42
2019-06-07T21:56:36.499Z,0.50
2019-06-07T21:59:09.677Z,0.72
2019-06-07T22:01:42.016Z,0.60
2019-06-07T22:04:15.537Z,0.50
2019-06-07T22:06:49.499Z,0.60
2019-06-07T22:09:22.508Z,0.47
2019-06-07T22:11:55.037Z,0.70
2019-06-07T22:14:27.208Z,0.78
2019-06-07T22:16:59.717Z,0.72
2019-06-07T22:19:32.591Z,0.57
2019-06-07T22:24:37.039Z,0.77
2019-06-07T22:27:09.547Z,0.60
2019-06-07T22:29:42.645Z,0.75
2019-06-07T22:34:48.243Z,0.90
2019-06-07T22:37:23.390Z,0.70
2019-06-07T22:39:54.549Z,0.80
2019-06-07T22:42:27.050Z,0.78
2019-06-07T22:45:00.519Z,0.55
2019-06-07T22:47:34.325Z,0.50
2019-06-07T22:50:08.383Z,0.80
2019-06-07T22:52:41.391Z,0.50
2019-06-07T22:55:15.889Z,0.33
2019-06-07T22:57:56.689Z,0.70
2019-06-07T23:00:31.229Z,0.60
2019-06-07T23:03:03.670Z,0.80
2019-06-07T23:05:36.020Z,0.85
2019-06-07T23:08:08.790Z,0.57
2019-06-07T23:13:13.652Z,0.47
2019-06-07T23:15:45.990Z,0.83
2019-06-07T23:18:18.069Z,0.50
2019-06-07T23:20:50.689Z,0.77
2019-06-07T23:23:23.603Z,0.80
2019-06-07T23:25:56.392Z,0.60
2019-06-07T23:28:28.858Z,0.62
2019-06-07T23:31:01.290Z,0.72
2019-06-07T23:33:33.968Z,0.42
2019-06-07T23:36:06.615Z,0.55
2019-06-07T23:38:38.740Z,0.80
2019-06-07T23:41:11.579Z,0.50
2019-06-07T23:43:44.215Z,0.98
2019-06-07T23:46:17.459Z,0.60
2019-06-07T23:48:50.438Z,0.70
2019-06-07T23:51:22.834Z,0.53
2019-06-07T23:53:55.315Z,0.70
2019-06-07T23:56:27.754Z,0.80
2019-06-07T23:59:00.590Z,0.93
